sensor_id;sensor_type;location;lat;lon;timestamp;temperature;humidity
16732;DHT22;8484;50.904;9.192;2023-05-03T00:01:35;3.70;99.90
16732;DHT22;8484;50.904;9.192;2023-05-03T00:04:02;3.70;99.90
16732;DHT22;8484;50.904;9.192;2023-05-03T00:06:29;3.60;99.90
16732;DHT22;8484;50.904;9.192;2023-05-03T00:08:58;3.70;99.90
16732;DHT22;8484;50.904;9.192;2023-05-03T00:11:25;3.60;99.90
16732;DHT22;8484;50.904;9.192;2023-05-03T00:13:52;3.50;99.90
16732;DHT22;8484;50.904;9.192;2023-05-03T00:16:19;3.50;99.90
16732;DHT22;8484;50.904;9.192;2023-05-03T00:18:45;3.50;99.90
16732;DHT22;8484;50.904;9.192;2023-05-03T00:21:12;3.50;99.90
16732;DHT22;8484;50.904;9.192;2023-05-03T00:23:39;3.50;99.90
16732;DHT22;8484;50.904;9.192;2023-05-03T00:26:07;3.50;99.90
16732;DHT22;8484;50.904;9.192;2023-05-03T00:28:34;3.50;99.90
16732;DHT22;8484;50.904;9.192;2023-05-03T00:31:06;3.50;99.90
16732;DHT22;8484;50.904;9.192;2023-05-03T00:33:33;3.40;99.90
16732;DHT22;8484;50.904;9.192;2023-05-03T00:36:06;3.30;99.90
16732;DHT22;8484;50.904;9.192;2023-05-03T00:38:33;3.20;99.90
16732;DHT22;8484;50.904;9.192;2023-05-03T00:41:00;3.10;99.90
16732;DHT22;8484;50.904;9.192;2023-05-03T00:43:29;3.00;99.90
16732;DHT22;8484;50.904;9.192;2023-05-03T00:45:56;3.00;99.90
16732;DHT22;8484;50.904;9.192;2023-05-03T00:48:23;3.00;99.90
16732;DHT22;8484;50.904;9.192;2023-05-03T00:50:50;3.10;99.90
16732;DHT22;8484;50.904;9.192;2023-05-03T00:53:19;3.10;99.90
16732;DHT22;8484;50.904;9.192;2023-05-03T00:55:46;3.00;99.90
16732;DHT22;8484;50.904;9.192;2023-05-03T00:58:13;3.10;99.90
16732;DHT22;8484;50.904;9.192;2023-05-03T01:00:42;3.20;99.90
16732;DHT22;8484;50.904;9.192;2023-05-03T01:03:09;3.20;99.90
16732;DHT22;8484;50.904;9.192;2023-05-03T01:05:43;3.10;99.90
16732;DHT22;8484;50.904;9.192;2023-05-03T01:08:19;3.10;99.90
16732;DHT22;8484;50.904;9.192;2023-05-03T01:10:53;3.20;99.90
16732;DHT22;8484;50.904;9.192;2023-05-03T01:13:25;3.10;99.90
16732;DHT22;8484;50.904;9.192;2023-05-03T01:16:08;3.10;99.90
16732;DHT22;8484;50.904;9.192;2023-05-03T01:18:39;3.10;99.90
16732;DHT22;8484;50.904;9.192;2023-05-03T01:21:09;3.00;99.90
16732;DHT22;8484;50.904;9.192;2023-05-03T01:23:42;2.80;99.90
16732;DHT22;8484;50.904;9.192;2023-05-03T01:26:18;2.80;99.90
16732;DHT22;8484;50.904;9.192;2023-05-03T01:28:46;2.90;99.90
16732;DHT22;8484;50.904;9.192;2023-05-03T01:31:17;2.70;99.90
16732;DHT22;8484;50.904;9.192;2023-05-03T01:33:51;2.20;99.90
16732;DHT22;8484;50.904;9.192;2023-05-03T01:36:23;2.00;99.90
16732;DHT22;8484;50.904;9.192;2023-05-03T01:38:53;2.00;99.90
16732;DHT22;8484;50.904;9.192;2023-05-03T01:41:22;2.20;99.90
16732;DHT22;8484;50.904;9.192;2023-05-03T01:43:50;2.10;99.90
16732;DHT22;8484;50.904;9.192;2023-05-03T01:46:19;2.30;99.90
16732;DHT22;8484;50.904;9.192;2023-05-03T01:48:46;2.20;99.90
16732;DHT22;8484;50.904;9.192;2023-05-03T01:51:13;2.30;99.90
16732;DHT22;8484;50.904;9.192;2023-05-03T01:53:40;2.20;99.90
16732;DHT22;8484;50.904;9.192;2023-05-03T01:56:07;2.00;99.90
16732;DHT22;8484;50.904;9.192;2023-05-03T01:58:35;1.90;99.90
16732;DHT22;8484;50.904;9.192;2023-05-03T02:01:03;2.20;99.90
16732;DHT22;8484;50.904;9.192;2023-05-03T02:03:31;2.20;99.90
16732;DHT22;8484;50.904;9.192;2023-05-03T02:05:58;2.30;99.90
16732;DHT22;8484;50.904;9.192;2023-05-03T02:08:25;2.10;99.90
16732;DHT22;8484;50.904;9.192;2023-05-03T02:10:52;2.30;99.90
16732;DHT22;8484;50.904;9.192;2023-05-03T02:13:19;2.20;99.90
16732;DHT22;8484;50.904;9.192;2023-05-03T02:15:47;2.00;99.90
16732;DHT22;8484;50.904;9.192;2023-05-03T02:18:14;1.90;99.90
16732;DHT22;8484;50.904;9.192;2023-05-03T02:20:44;2.00;99.90
16732;DHT22;8484;50.904;9.192;2023-05-03T02:23:11;2.10;99.90
16732;DHT22;8484;50.904;9.192;2023-05-03T02:25:38;2.30;99.90
16732;DHT22;8484;50.904;9.192;2023-05-03T02:28:05;2.50;99.90
16732;DHT22;8484;50.904;9.192;2023-05-03T02:30:33;2.30;99.90
16732;DHT22;8484;50.904;9.192;2023-05-03T02:33:01;2.00;99.90
16732;DHT22;8484;50.904;9.192;2023-05-03T02:35:29;1.80;99.90
16732;DHT22;8484;50.904;9.192;2023-05-03T02:37:56;1.70;99.90
16732;DHT22;8484;50.904;9.192;2023-05-03T02:40:23;1.70;99.90
16732;DHT22;8484;50.904;9.192;2023-05-03T02:42:50;1.70;99.90
16732;DHT22;8484;50.904;9.192;2023-05-03T02:45:17;1.60;99.90
16732;DHT22;8484;50.904;9.192;2023-05-03T02:47:44;1.60;99.90
16732;DHT22;8484;50.904;9.192;2023-05-03T02:50:12;1.50;99.90
16732;DHT22;8484;50.904;9.192;2023-05-03T02:52:39;1.40;99.90
16732;DHT22;8484;50.904;9.192;2023-05-03T02:55:06;1.40;99.90
16732;DHT22;8484;50.904;9.192;2023-05-03T02:57:33;1.40;99.90
16732;DHT22;8484;50.904;9.192;2023-05-03T03:00:00;1.60;99.90
16732;DHT22;8484;50.904;9.192;2023-05-03T03:02:27;1.60;99.90
16732;DHT22;8484;50.904;9.192;2023-05-03T03:04:54;1.90;99.90
16732;DHT22;8484;50.904;9.192;2023-05-03T03:07:22;2.00;99.90
16732;DHT22;8484;50.904;9.192;2023-05-03T03:09:49;1.90;99.90
16732;DHT22;8484;50.904;9.192;2023-05-03T03:12:16;1.90;99.90
16732;DHT22;8484;50.904;9.192;2023-05-03T03:14:43;2.00;99.90
16732;DHT22;8484;50.904;9.192;2023-05-03T03:17:11;2.00;99.90
16732;DHT22;8484;50.904;9.192;2023-05-03T03:19:38;2.20;99.90
16732;DHT22;8484;50.904;9.192;2023-05-03T03:22:04;2.30;99.90
16732;DHT22;8484;50.904;9.192;2023-05-03T03:24:34;2.20;99.90
16732;DHT22;8484;50.904;9.192;2023-05-03T03:27:00;2.10;99.90
16732;DHT22;8484;50.904;9.192;2023-05-03T03:29:30;2.20;99.90
16732;DHT22;8484;50.904;9.192;2023-05-03T03:31:57;2.10;99.90
16732;DHT22;8484;50.904;9.192;2023-05-03T03:34:24;2.20;99.90
16732;DHT22;8484;50.904;9.192;2023-05-03T03:36:51;2.30;99.90
16732;DHT22;8484;50.904;9.192;2023-05-03T03:39:17;2.40;99.90
16732;DHT22;8484;50.904;9.192;2023-05-03T03:41:48;2.30;99.90
16732;DHT22;8484;50.904;9.192;2023-05-03T03:44:16;2.20;99.90
16732;DHT22;8484;50.904;9.192;2023-05-03T03:46:43;2.20;99.90
16732;DHT22;8484;50.904;9.192;2023-05-03T03:49:10;2.00;99.90
16732;DHT22;8484;50.904;9.192;2023-05-03T03:51:37;2.00;99.90
16732;DHT22;8484;50.904;9.192;2023-05-03T03:54:04;1.70;99.90
16732;DHT22;8484;50.904;9.192;2023-05-03T03:56:31;1.50;99.90
16732;DHT22;8484;50.904;9.192;2023-05-03T04:02:21;1.20;99.90
16732;DHT22;8484;50.904;9.192;2023-05-03T04:04:49;1.40;99.90
16732;DHT22;8484;50.904;9.192;2023-05-03T04:07:16;1.40;99.90
16732;DHT22;8484;50.904;9.192;2023-05-03T04:09:42;1.40;99.90
16732;DHT22;8484;50.904;9.192;2023-05-03T04:12:10;1.60;99.90
16732;DHT22;8484;50.904;9.192;2023-05-03T04:14:37;1.80;99.90
16732;DHT22;8484;50.904;9.192;2023-05-03T04:17:04;1.60;99.90
16732;DHT22;8484;50.904;9.192;2023-05-03T04:19:32;1.60;99.90
16732;DHT22;8484;50.904;9.192;2023-05-03T04:21:59;1.60;99.90
16732;DHT22;8484;50.904;9.192;2023-05-03T04:24:26;1.60;99.90
16732;DHT22;8484;50.904;9.192;2023-05-03T04:26:56;1.50;99.90
16732;DHT22;8484;50.904;9.192;2023-05-03T04:29:23;1.40;99.90
16732;DHT22;8484;50.904;9.192;2023-05-03T04:31:50;1.40;99.90
16732;DHT22;8484;50.904;9.192;2023-05-03T04:34:17;1.40;99.90
16732;DHT22;8484;50.904;9.192;2023-05-03T04:36:45;1.50;99.90
16732;DHT22;8484;50.904;9.192;2023-05-03T04:39:12;1.70;99.90
16732;DHT22;8484;50.904;9.192;2023-05-03T04:41:40;1.80;99.90
16732;DHT22;8484;50.904;9.192;2023-05-03T04:44:07;1.80;99.90
16732;DHT22;8484;50.904;9.192;2023-05-03T04:46:34;1.90;99.90
16732;DHT22;8484;50.904;9.192;2023-05-03T04:49:01;2.00;99.90
16732;DHT22;8484;50.904;9.192;2023-05-03T04:51:28;2.10;99.90
16732;DHT22;8484;50.904;9.192;2023-05-03T04:53:56;2.20;99.90
16732;DHT22;8484;50.904;9.192;2023-05-03T04:56:23;2.50;99.90
16732;DHT22;8484;50.904;9.192;2023-05-03T04:58:51;2.80;99.90
16732;DHT22;8484;50.904;9.192;2023-05-03T05:01:19;3.00;99.90
16732;DHT22;8484;50.904;9.192;2023-05-03T05:03:51;3.10;99.90
16732;DHT22;8484;50.904;9.192;2023-05-03T05:06:18;3.10;99.90
16732;DHT22;8484;50.904;9.192;2023-05-03T05:08:45;3.10;99.90
16732;DHT22;8484;50.904;9.192;2023-05-03T05:11:13;3.30;99.90
16732;DHT22;8484;50.904;9.192;2023-05-03T05:13:40;3.40;99.90
16732;DHT22;8484;50.904;9.192;2023-05-03T05:16:07;3.50;99.90
16732;DHT22;8484;50.904;9.192;2023-05-03T05:18:34;3.60;99.90
16732;DHT22;8484;50.904;9.192;2023-05-03T05:21:01;3.80;99.90
16732;DHT22;8484;50.904;9.192;2023-05-03T05:23:28;3.70;99.90
16732;DHT22;8484;50.904;9.192;2023-05-03T05:25:55;3.60;99.90
16732;DHT22;8484;50.904;9.192;2023-05-03T05:28:26;3.80;99.90
16732;DHT22;8484;50.904;9.192;2023-05-03T05:30:53;4.10;99.90
16732;DHT22;8484;50.904;9.192;2023-05-03T05:33:20;4.30;99.90
16732;DHT22;8484;50.904;9.192;2023-05-03T05:35:47;4.30;99.90
16732;DHT22;8484;50.904;9.192;2023-05-03T05:38:14;4.60;99.90
16732;DHT22;8484;50.904;9.192;2023-05-03T05:40:42;4.80;99.90
16732;DHT22;8484;50.904;9.192;2023-05-03T05:43:08;4.90;99.90
16732;DHT22;8484;50.904;9.192;2023-05-03T05:45:37;5.20;99.90
16732;DHT22;8484;50.904;9.192;2023-05-03T05:48:04;5.30;99.90
16732;DHT22;8484;50.904;9.192;2023-05-03T05:50:31;5.50;99.90
16732;DHT22;8484;50.904;9.192;2023-05-03T05:52:58;5.70;99.90
16732;DHT22;8484;50.904;9.192;2023-05-03T05:55:24;5.70;99.90
16732;DHT22;8484;50.904;9.192;2023-05-03T05:57:51;5.80;99.90
16732;DHT22;8484;50.904;9.192;2023-05-03T06:00:18;6.10;99.90
16732;DHT22;8484;50.904;9.192;2023-05-03T06:02:47;6.20;99.90
16732;DHT22;8484;50.904;9.192;2023-05-03T06:05:14;6.50;99.90
16732;DHT22;8484;50.904;9.192;2023-05-03T06:07:41;6.50;99.90
16732;DHT22;8484;50.904;9.192;2023-05-03T06:10:08;6.50;99.90
16732;DHT22;8484;50.904;9.192;2023-05-03T06:12:35;6.80;99.90
16732;DHT22;8484;50.904;9.192;2023-05-03T06:15:02;7.00;99.90
16732;DHT22;8484;50.904;9.192;2023-05-03T06:17:30;7.20;99.90
16732;DHT22;8484;50.904;9.192;2023-05-03T06:19:58;7.20;99.90
16732;DHT22;8484;50.904;9.192;2023-05-03T06:22:25;7.20;99.90
16732;DHT22;8484;50.904;9.192;2023-05-03T06:24:53;7.40;99.90
16732;DHT22;8484;50.904;9.192;2023-05-03T06:27:20;7.60;99.90
16732;DHT22;8484;50.904;9.192;2023-05-03T06:29:47;7.50;99.90
16732;DHT22;8484;50.904;9.192;2023-05-03T06:32:14;7.30;99.90
16732;DHT22;8484;50.904;9.192;2023-05-03T06:34:41;7.70;99.90
16732;DHT22;8484;50.904;9.192;2023-05-03T06:37:09;7.90;99.90
16732;DHT22;8484;50.904;9.192;2023-05-03T06:39:36;8.20;99.90
16732;DHT22;8484;50.904;9.192;2023-05-03T06:42:03;7.80;99.90
16732;DHT22;8484;50.904;9.192;2023-05-03T06:44:30;8.10;99.90
16732;DHT22;8484;50.904;9.192;2023-05-03T06:46:57;8.30;99.90
16732;DHT22;8484;50.904;9.192;2023-05-03T06:49:23;8.50;99.90
16732;DHT22;8484;50.904;9.192;2023-05-03T06:51:50;8.60;99.90
16732;DHT22;8484;50.904;9.192;2023-05-03T06:54:18;8.90;99.90
16732;DHT22;8484;50.904;9.192;2023-05-03T06:56:45;9.00;99.90
16732;DHT22;8484;50.904;9.192;2023-05-03T06:59:12;9.10;99.90
16732;DHT22;8484;50.904;9.192;2023-05-03T07:01:39;9.50;99.90
16732;DHT22;8484;50.904;9.192;2023-05-03T07:04:06;9.50;99.90
16732;DHT22;8484;50.904;9.192;2023-05-03T07:06:33;9.60;99.90
16732;DHT22;8484;50.904;9.192;2023-05-03T07:09:00;9.80;99.90
16732;DHT22;8484;50.904;9.192;2023-05-03T07:11:28;9.90;99.90
16732;DHT22;8484;50.904;9.192;2023-05-03T07:13:55;10.10;99.90
16732;DHT22;8484;50.904;9.192;2023-05-03T07:16:22;10.40;99.90
16732;DHT22;8484;50.904;9.192;2023-05-03T07:18:50;10.60;99.90
16732;DHT22;8484;50.904;9.192;2023-05-03T07:21:16;10.70;99.90
16732;DHT22;8484;50.904;9.192;2023-05-03T07:23:43;10.40;99.90
16732;DHT22;8484;50.904;9.192;2023-05-03T07:26:10;10.90;99.90
16732;DHT22;8484;50.904;9.192;2023-05-03T07:28:38;11.20;99.90
16732;DHT22;8484;50.904;9.192;2023-05-03T07:31:05;11.10;99.90
16732;DHT22;8484;50.904;9.192;2023-05-03T07:33:33;11.30;99.90
16732;DHT22;8484;50.904;9.192;2023-05-03T07:36:01;11.10;99.90
16732;DHT22;8484;50.904;9.192;2023-05-03T07:38:28;11.80;99.90
16732;DHT22;8484;50.904;9.192;2023-05-03T07:40:55;11.60;99.90
16732;DHT22;8484;50.904;9.192;2023-05-03T07:43:22;12.10;99.90
16732;DHT22;8484;50.904;9.192;2023-05-03T07:45:50;11.40;99.90
16732;DHT22;8484;50.904;9.192;2023-05-03T07:48:17;11.60;99.90
16732;DHT22;8484;50.904;9.192;2023-05-03T07:50:44;11.90;99.90
16732;DHT22;8484;50.904;9.192;2023-05-03T07:53:11;12.20;99.90
16732;DHT22;8484;50.904;9.192;2023-05-03T07:55:41;12.20;99.90
16732;DHT22;8484;50.904;9.192;2023-05-03T07:58:08;12.00;99.90
16732;DHT22;8484;50.904;9.192;2023-05-03T08:00:35;12.50;99.90
16732;DHT22;8484;50.904;9.192;2023-05-03T08:03:05;13.00;99.90
16732;DHT22;8484;50.904;9.192;2023-05-03T08:05:32;12.70;99.90
16732;DHT22;8484;50.904;9.192;2023-05-03T08:08:01;12.30;99.90
16732;DHT22;8484;50.904;9.192;2023-05-03T08:10:30;12.60;99.90
16732;DHT22;8484;50.904;9.192;2023-05-03T08:13:02;12.70;99.90
16732;DHT22;8484;50.904;9.192;2023-05-03T08:15:29;12.80;99.90
16732;DHT22;8484;50.904;9.192;2023-05-03T08:17:56;13.20;99.90
16732;DHT22;8484;50.904;9.192;2023-05-03T08:20:24;13.60;99.90
16732;DHT22;8484;50.904;9.192;2023-05-03T08:22:52;13.50;99.90
16732;DHT22;8484;50.904;9.192;2023-05-03T08:25:21;13.30;99.90
16732;DHT22;8484;50.904;9.192;2023-05-03T08:27:49;13.90;99.90
16732;DHT22;8484;50.904;9.192;2023-05-03T08:30:16;14.00;99.90
16732;DHT22;8484;50.904;9.192;2023-05-03T08:32:43;13.10;99.90
16732;DHT22;8484;50.904;9.192;2023-05-03T08:35:10;13.90;99.90
16732;DHT22;8484;50.904;9.192;2023-05-03T08:37:41;14.30;99.90
16732;DHT22;8484;50.904;9.192;2023-05-03T08:40:09;13.70;99.90
16732;DHT22;8484;50.904;9.192;2023-05-03T08:42:39;13.90;99.90
16732;DHT22;8484;50.904;9.192;2023-05-03T08:45:10;14.40;99.90
16732;DHT22;8484;50.904;9.192;2023-05-03T08:47:38;14.20;99.90
16732;DHT22;8484;50.904;9.192;2023-05-03T08:50:07;13.50;99.90
16732;DHT22;8484;50.904;9.192;2023-05-03T08:52:35;13.80;99.90
16732;DHT22;8484;50.904;9.192;2023-05-03T08:55:04;13.30;99.90
16732;DHT22;8484;50.904;9.192;2023-05-03T08:57:33;14.00;99.90
16732;DHT22;8484;50.904;9.192;2023-05-03T09:00:00;14.70;99.90
16732;DHT22;8484;50.904;9.192;2023-05-03T09:02:30;14.20;99.90
16732;DHT22;8484;50.904;9.192;2023-05-03T09:04:59;14.60;99.90
16732;DHT22;8484;50.904;9.192;2023-05-03T09:07:26;15.00;99.90
16732;DHT22;8484;50.904;9.192;2023-05-03T09:09:53;15.20;99.90
16732;DHT22;8484;50.904;9.192;2023-05-03T09:12:36;15.20;99.90
16732;DHT22;8484;50.904;9.192;2023-05-03T09:15:06;14.80;99.90
16732;DHT22;8484;50.904;9.192;2023-05-03T09:17:33;15.10;99.50
16732;DHT22;8484;50.904;9.192;2023-05-03T09:20:00;14.60;99.90
16732;DHT22;8484;50.904;9.192;2023-05-03T09:22:30;15.40;99.40
16732;DHT22;8484;50.904;9.192;2023-05-03T09:24:59;15.40;98.40
16732;DHT22;8484;50.904;9.192;2023-05-03T09:27:26;15.10;99.50
16732;DHT22;8484;50.904;9.192;2023-05-03T09:29:55;15.50;99.90
16732;DHT22;8484;50.904;9.192;2023-05-03T09:32:21;15.30;96.90
16732;DHT22;8484;50.904;9.192;2023-05-03T09:34:49;15.90;99.50
16732;DHT22;8484;50.904;9.192;2023-05-03T09:37:16;15.90;97.40
16732;DHT22;8484;50.904;9.192;2023-05-03T09:39:45;16.90;97.70
16732;DHT22;8484;50.904;9.192;2023-05-03T09:42:14;17.20;95.30
16732;DHT22;8484;50.904;9.192;2023-05-03T09:44:42;17.30;95.60
16732;DHT22;8484;50.904;9.192;2023-05-03T09:47:11;16.90;97.80
16732;DHT22;8484;50.904;9.192;2023-05-03T09:49:38;17.20;97.40
16732;DHT22;8484;50.904;9.192;2023-05-03T09:52:05;17.10;97.50
16732;DHT22;8484;50.904;9.192;2023-05-03T09:54:38;17.60;97.00
16732;DHT22;8484;50.904;9.192;2023-05-03T09:57:06;18.10;94.40
16732;DHT22;8484;50.904;9.192;2023-05-03T09:59:34;18.60;95.50
16732;DHT22;8484;50.904;9.192;2023-05-03T10:02:02;17.60;93.80
16732;DHT22;8484;50.904;9.192;2023-05-03T10:04:38;17.40;98.40
16732;DHT22;8484;50.904;9.192;2023-05-03T10:07:13;16.90;97.40
16732;DHT22;8484;50.904;9.192;2023-05-03T10:09:42;16.70;96.90
16732;DHT22;8484;50.904;9.192;2023-05-03T10:12:11;17.60;93.00
16732;DHT22;8484;50.904;9.192;2023-05-03T10:14:41;17.60;96.10
16732;DHT22;8484;50.904;9.192;2023-05-03T10:17:13;16.80;97.50
16732;DHT22;8484;50.904;9.192;2023-05-03T10:19:46;16.30;96.40
16732;DHT22;8484;50.904;9.192;2023-05-03T10:22:19;16.80;93.40
16732;DHT22;8484;50.904;9.192;2023-05-03T10:25:06;17.60;94.00
16732;DHT22;8484;50.904;9.192;2023-05-03T10:27:40;17.60;95.80
16732;DHT22;8484;50.904;9.192;2023-05-03T10:30:08;17.00;96.50
16732;DHT22;8484;50.904;9.192;2023-05-03T10:32:53;16.40;95.50
16732;DHT22;8484;50.904;9.192;2023-05-03T10:35:25;17.00;94.40
16732;DHT22;8484;50.904;9.192;2023-05-03T10:37:52;17.90;94.40
16732;DHT22;8484;50.904;9.192;2023-05-03T10:40:21;18.40;94.00
16732;DHT22;8484;50.904;9.192;2023-05-03T10:42:53;17.80;95.50
16732;DHT22;8484;50.904;9.192;2023-05-03T10:45:22;19.20;93.10
16732;DHT22;8484;50.904;9.192;2023-05-03T10:48:14;19.60;92.80
16732;DHT22;8484;50.904;9.192;2023-05-03T10:50:46;19.30;92.40
16732;DHT22;8484;50.904;9.192;2023-05-03T10:53:33;20.00;92.00
16732;DHT22;8484;50.904;9.192;2023-05-03T10:56:01;20.50;89.10
16732;DHT22;8484;50.904;9.192;2023-05-03T10:58:31;19.00;92.10
16732;DHT22;8484;50.904;9.192;2023-05-03T11:01:01;19.20;91.50
16732;DHT22;8484;50.904;9.192;2023-05-03T11:03:54;18.50;95.00
16732;DHT22;8484;50.904;9.192;2023-05-03T11:06:30;18.30;94.50
16732;DHT22;8484;50.904;9.192;2023-05-03T11:08:58;18.90;92.80
16732;DHT22;8484;50.904;9.192;2023-05-03T11:11:25;19.90;90.60
16732;DHT22;8484;50.904;9.192;2023-05-03T11:13:53;19.80;90.70
16732;DHT22;8484;50.904;9.192;2023-05-03T11:16:20;20.40;90.80
16732;DHT22;8484;50.904;9.192;2023-05-03T11:18:47;20.10;91.40
16732;DHT22;8484;50.904;9.192;2023-05-03T11:21:15;19.00;90.50
16732;DHT22;8484;50.904;9.192;2023-05-03T11:23:44;18.10;93.70
16732;DHT22;8484;50.904;9.192;2023-05-03T11:26:12;19.10;93.20
16732;DHT22;8484;50.904;9.192;2023-05-03T11:28:39;19.00;93.30
16732;DHT22;8484;50.904;9.192;2023-05-03T11:31:07;19.00;92.80
16732;DHT22;8484;50.904;9.192;2023-05-03T11:33:35;19.30;90.30
16732;DHT22;8484;50.904;9.192;2023-05-03T11:36:04;19.00;92.50
16732;DHT22;8484;50.904;9.192;2023-05-03T11:38:33;19.30;93.30
16732;DHT22;8484;50.904;9.192;2023-05-03T11:41:10;18.30;93.20
16732;DHT22;8484;50.904;9.192;2023-05-03T11:43:40;19.30;91.60
16732;DHT22;8484;50.904;9.192;2023-05-03T11:46:07;19.20;92.20
16732;DHT22;8484;50.904;9.192;2023-05-03T11:48:34;19.50;91.30
16732;DHT22;8484;50.904;9.192;2023-05-03T11:51:06;20.50;90.80
16732;DHT22;8484;50.904;9.192;2023-05-03T11:53:36;20.30;91.00
16732;DHT22;8484;50.904;9.192;2023-05-03T11:56:07;20.30;91.20
16732;DHT22;8484;50.904;9.192;2023-05-03T11:58:34;20.90;90.40
16732;DHT22;8484;50.904;9.192;2023-05-03T12:01:01;20.30;90.90
16732;DHT22;8484;50.904;9.192;2023-05-03T12:03:30;20.50;90.40
16732;DHT22;8484;50.904;9.192;2023-05-03T12:05:58;20.10;92.10
16732;DHT22;8484;50.904;9.192;2023-05-03T12:08:29;21.30;89.60
16732;DHT22;8484;50.904;9.192;2023-05-03T12:10:57;21.80;89.70
16732;DHT22;8484;50.904;9.192;2023-05-03T12:13:28;20.30;87.60
16732;DHT22;8484;50.904;9.192;2023-05-03T12:15:56;19.60;90.60
16732;DHT22;8484;50.904;9.192;2023-05-03T12:18:24;20.30;88.30
16732;DHT22;8484;50.904;9.192;2023-05-03T12:20:55;20.90;88.90
16732;DHT22;8484;50.904;9.192;2023-05-03T12:23:23;21.00;90.80
16732;DHT22;8484;50.904;9.192;2023-05-03T12:25:51;21.20;88.70
16732;DHT22;8484;50.904;9.192;2023-05-03T12:28:18;20.90;85.60
16732;DHT22;8484;50.904;9.192;2023-05-03T12:30:46;21.10;85.00
16732;DHT22;8484;50.904;9.192;2023-05-03T12:33:13;20.50;90.20
16732;DHT22;8484;50.904;9.192;2023-05-03T12:35:42;20.40;91.70
16732;DHT22;8484;50.904;9.192;2023-05-03T12:38:09;21.30;88.10
16732;DHT22;8484;50.904;9.192;2023-05-03T12:40:37;21.20;89.90
16732;DHT22;8484;50.904;9.192;2023-05-03T12:43:05;20.90;88.50
16732;DHT22;8484;50.904;9.192;2023-05-03T12:45:32;21.10;89.00
16732;DHT22;8484;50.904;9.192;2023-05-03T12:48:00;21.10;87.00
16732;DHT22;8484;50.904;9.192;2023-05-03T12:50:27;20.80;90.50
16732;DHT22;8484;50.904;9.192;2023-05-03T12:52:54;20.00;90.10
16732;DHT22;8484;50.904;9.192;2023-05-03T12:55:21;19.70;88.50
16732;DHT22;8484;50.904;9.192;2023-05-03T12:57:48;20.40;88.10
16732;DHT22;8484;50.904;9.192;2023-05-03T13:00:15;21.10;85.70
16732;DHT22;8484;50.904;9.192;2023-05-03T13:02:44;20.90;90.50
16732;DHT22;8484;50.904;9.192;2023-05-03T13:05:13;20.20;90.20
16732;DHT22;8484;50.904;9.192;2023-05-03T13:07:40;20.20;86.00
16732;DHT22;8484;50.904;9.192;2023-05-03T13:10:08;20.10;90.50
16732;DHT22;8484;50.904;9.192;2023-05-03T13:12:35;20.00;91.00
16732;DHT22;8484;50.904;9.192;2023-05-03T13:15:03;20.40;90.90
16732;DHT22;8484;50.904;9.192;2023-05-03T13:17:30;20.40;89.70
16732;DHT22;8484;50.904;9.192;2023-05-03T13:19:57;20.50;91.20
16732;DHT22;8484;50.904;9.192;2023-05-03T13:22:26;20.40;90.20
16732;DHT22;8484;50.904;9.192;2023-05-03T13:24:53;20.40;87.70
16732;DHT22;8484;50.904;9.192;2023-05-03T13:27:20;20.70;89.40
16732;DHT22;8484;50.904;9.192;2023-05-03T13:29:47;20.60;90.20
16732;DHT22;8484;50.904;9.192;2023-05-03T13:32:14;20.30;91.40
16732;DHT22;8484;50.904;9.192;2023-05-03T13:34:41;21.00;89.80
16732;DHT22;8484;50.904;9.192;2023-05-03T13:37:08;20.90;87.70
16732;DHT22;8484;50.904;9.192;2023-05-03T13:39:37;20.70;88.90
16732;DHT22;8484;50.904;9.192;2023-05-03T13:42:04;19.60;90.40
16732;DHT22;8484;50.904;9.192;2023-05-03T13:44:31;20.10;90.20
16732;DHT22;8484;50.904;9.192;2023-05-03T13:46:58;20.10;89.50
16732;DHT22;8484;50.904;9.192;2023-05-03T13:49:26;19.90;87.00
16732;DHT22;8484;50.904;9.192;2023-05-03T13:51:52;19.20;90.10
16732;DHT22;8484;50.904;9.192;2023-05-03T13:54:20;19.80;90.60
16732;DHT22;8484;50.904;9.192;2023-05-03T13:56:48;20.70;86.60
16732;DHT22;8484;50.904;9.192;2023-05-03T13:59:15;21.00;87.80
16732;DHT22;8484;50.904;9.192;2023-05-03T14:01:42;20.60;90.50
16732;DHT22;8484;50.904;9.192;2023-05-03T14:04:09;20.10;90.00
16732;DHT22;8484;50.904;9.192;2023-05-03T14:06:36;19.40;88.00
16732;DHT22;8484;50.904;9.192;2023-05-03T14:09:04;19.90;90.10
16732;DHT22;8484;50.904;9.192;2023-05-03T14:11:31;20.30;89.70
16732;DHT22;8484;50.904;9.192;2023-05-03T14:13:59;20.80;86.50
16732;DHT22;8484;50.904;9.192;2023-05-03T14:16:26;20.60;88.70
16732;DHT22;8484;50.904;9.192;2023-05-03T14:18:53;19.30;91.20
16732;DHT22;8484;50.904;9.192;2023-05-03T14:21:20;19.50;91.00
16732;DHT22;8484;50.904;9.192;2023-05-03T14:23:47;19.90;85.70
16732;DHT22;8484;50.904;9.192;2023-05-03T14:26:16;19.80;87.50
16732;DHT22;8484;50.904;9.192;2023-05-03T14:28:43;19.20;91.70
16732;DHT22;8484;50.904;9.192;2023-05-03T14:31:12;19.60;88.60
16732;DHT22;8484;50.904;9.192;2023-05-03T14:33:39;19.50;91.00
16732;DHT22;8484;50.904;9.192;2023-05-03T14:36:06;19.50;89.30
16732;DHT22;8484;50.904;9.192;2023-05-03T14:38:38;20.00;88.10
16732;DHT22;8484;50.904;9.192;2023-05-03T14:41:05;19.70;90.90
16732;DHT22;8484;50.904;9.192;2023-05-03T14:43:32;19.70;87.70
16732;DHT22;8484;50.904;9.192;2023-05-03T14:45:59;19.60;90.80
16732;DHT22;8484;50.904;9.192;2023-05-03T14:48:28;19.10;89.30
16732;DHT22;8484;50.904;9.192;2023-05-03T14:50:55;19.60;89.70
16732;DHT22;8484;50.904;9.192;2023-05-03T14:53:22;20.30;87.60
16732;DHT22;8484;50.904;9.192;2023-05-03T14:55:49;20.50;86.80
16732;DHT22;8484;50.904;9.192;2023-05-03T14:58:16;20.60;84.30
16732;DHT22;8484;50.904;9.192;2023-05-03T15:00:43;20.10;85.30
16732;DHT22;8484;50.904;9.192;2023-05-03T15:03:10;18.90;89.90
16732;DHT22;8484;50.904;9.192;2023-05-03T15:05:46;18.70;90.50
16732;DHT22;8484;50.904;9.192;2023-05-03T15:08:15;19.40;90.50
16732;DHT22;8484;50.904;9.192;2023-05-03T15:10:42;19.70;88.90
16732;DHT22;8484;50.904;9.192;2023-05-03T15:13:09;20.10;88.20
16732;DHT22;8484;50.904;9.192;2023-05-03T15:15:36;20.30;86.50
16732;DHT22;8484;50.904;9.192;2023-05-03T15:18:03;19.80;88.60
16732;DHT22;8484;50.904;9.192;2023-05-03T15:20:31;18.90;90.70
16732;DHT22;8484;50.904;9.192;2023-05-03T15:22:59;19.60;88.90
16732;DHT22;8484;50.904;9.192;2023-05-03T15:25:26;19.00;90.80
16732;DHT22;8484;50.904;9.192;2023-05-03T15:27:52;19.10;88.70
16732;DHT22;8484;50.904;9.192;2023-05-03T15:30:20;18.90;89.80
16732;DHT22;8484;50.904;9.192;2023-05-03T15:32:47;19.30;89.00
16732;DHT22;8484;50.904;9.192;2023-05-03T15:35:14;19.10;91.20
16732;DHT22;8484;50.904;9.192;2023-05-03T15:37:41;19.50;86.70
16732;DHT22;8484;50.904;9.192;2023-05-03T15:40:10;18.90;89.00
16732;DHT22;8484;50.904;9.192;2023-05-03T15:42:38;19.40;88.70
16732;DHT22;8484;50.904;9.192;2023-05-03T15:45:06;19.30;88.00
16732;DHT22;8484;50.904;9.192;2023-05-03T15:47:33;18.70;90.40
16732;DHT22;8484;50.904;9.192;2023-05-03T15:50:00;19.30;87.80
16732;DHT22;8484;50.904;9.192;2023-05-03T15:52:27;19.50;87.60
16732;DHT22;8484;50.904;9.192;2023-05-03T15:54:54;19.80;87.50
16732;DHT22;8484;50.904;9.192;2023-05-03T15:57:22;19.50;86.60
16732;DHT22;8484;50.904;9.192;2023-05-03T15:59:50;18.50;90.50
16732;DHT22;8484;50.904;9.192;2023-05-03T16:02:17;18.40;90.60